sensor_id;sensor_type;location;lat;lon;timestamp;temperature;humidity
13794;DHT22;31160;49.500;7.772;2022-12-16T00:00:02;-5.50;99.90
13794;DHT22;31160;49.500;7.772;2022-12-16T00:02:30;-5.70;99.90
13794;DHT22;31160;49.500;7.772;2022-12-16T00:04:57;-5.70;99.90
13794;DHT22;31160;49.500;7.772;2022-12-16T00:07:24;-5.60;99.90
13794;DHT22;31160;49.500;7.772;2022-12-16T00:09:51;-5.60;99.90
13794;DHT22;31160;49.500;7.772;2022-12-16T00:12:17;-5.70;99.90
13794;DHT22;31160;49.500;7.772;2022-12-16T00:14:44;-5.60;99.90
13794;DHT22;31160;49.500;7.772;2022-12-16T00:17:11;-5.60;99.90
13794;DHT22;31160;49.500;7.772;2022-12-16T00:19:38;-5.60;99.90
13794;DHT22;31160;49.500;7.772;2022-12-16T00:22:04;-5.50;99.90
13794;DHT22;31160;49.500;7.772;2022-12-16T00:24:31;-5.60;99.90
13794;DHT22;31160;49.500;7.772;2022-12-16T00:26:58;-5.60;99.90
13794;DHT22;31160;49.500;7.772;2022-12-16T00:29:24;-5.80;99.90
13794;DHT22;31160;49.500;7.772;2022-12-16T00:31:51;-5.70;99.90
13794;DHT22;31160;49.500;7.772;2022-12-16T00:34:19;-5.60;99.90
13794;DHT22;31160;49.500;7.772;2022-12-16T00:36:46;-5.50;99.90
13794;DHT22;31160;49.500;7.772;2022-12-16T00:39:12;-5.50;99.90
13794;DHT22;31160;49.500;7.772;2022-12-16T00:41:39;-5.40;99.90
13794;DHT22;31160;49.500;7.772;2022-12-16T00:44:06;-5.40;99.90
13794;DHT22;31160;49.500;7.772;2022-12-16T00:46:34;-5.30;99.90
13794;DHT22;31160;49.500;7.772;2022-12-16T00:49:00;-5.10;99.90
13794;DHT22;31160;49.500;7.772;2022-12-16T00:51:27;-5.00;99.90
13794;DHT22;31160;49.500;7.772;2022-12-16T00:53:53;-5.00;99.90
13794;DHT22;31160;49.500;7.772;2022-12-16T00:56:20;-4.90;99.90
13794;DHT22;31160;49.500;7.772;2022-12-16T00:58:47;-4.90;99.90
13794;DHT22;31160;49.500;7.772;2022-12-16T01:01:14;-4.70;99.90
13794;DHT22;31160;49.500;7.772;2022-12-16T01:03:40;-4.70;99.90
13794;DHT22;31160;49.500;7.772;2022-12-16T01:06:13;-4.70;99.90
13794;DHT22;31160;49.500;7.772;2022-12-16T01:08:40;-4.70;99.90
13794;DHT22;31160;49.500;7.772;2022-12-16T01:11:15;-4.70;99.90
13794;DHT22;31160;49.500;7.772;2022-12-16T01:13:43;-4.60;99.90
13794;DHT22;31160;49.500;7.772;2022-12-16T01:16:09;-4.80;99.90
13794;DHT22;31160;49.500;7.772;2022-12-16T01:18:37;-5.00;99.90
13794;DHT22;31160;49.500;7.772;2022-12-16T01:21:05;-5.30;99.90
13794;DHT22;31160;49.500;7.772;2022-12-16T01:23:34;-5.40;99.90
13794;DHT22;31160;49.500;7.772;2022-12-16T01:26:01;-5.60;99.90
13794;DHT22;31160;49.500;7.772;2022-12-16T01:28:28;-5.70;99.90
13794;DHT22;31160;49.500;7.772;2022-12-16T01:30:56;-5.70;99.90
13794;DHT22;31160;49.500;7.772;2022-12-16T01:33:28;-5.80;99.90
13794;DHT22;31160;49.500;7.772;2022-12-16T01:36:04;-5.80;99.90
13794;DHT22;31160;49.500;7.772;2022-12-16T01:38:32;-5.90;99.90
13794;DHT22;31160;49.500;7.772;2022-12-16T01:40:59;-5.90;99.90
13794;DHT22;31160;49.500;7.772;2022-12-16T01:43:28;-5.90;99.90
13794;DHT22;31160;49.500;7.772;2022-12-16T01:46:11;-5.90;99.90
13794;DHT22;31160;49.500;7.772;2022-12-16T01:48:47;-6.00;99.90
13794;DHT22;31160;49.500;7.772;2022-12-16T01:51:23;-6.20;99.90
13794;DHT22;31160;49.500;7.772;2022-12-16T01:54:00;-6.10;99.90
13794;DHT22;31160;49.500;7.772;2022-12-16T01:56:30;-6.10;99.90
13794;DHT22;31160;49.500;7.772;2022-12-16T01:58:58;-6.00;99.90
13794;DHT22;31160;49.500;7.772;2022-12-16T02:01:26;-6.00;99.90
13794;DHT22;31160;49.500;7.772;2022-12-16T02:03:55;-6.10;99.90
13794;DHT22;31160;49.500;7.772;2022-12-16T02:06:23;-6.20;99.90
13794;DHT22;31160;49.500;7.772;2022-12-16T02:08:54;-6.20;99.90
13794;DHT22;31160;49.500;7.772;2022-12-16T02:12:20;-6.20;99.90
13794;DHT22;31160;49.500;7.772;2022-12-16T02:15:05;-6.20;99.90
13794;DHT22;31160;49.500;7.772;2022-12-16T02:17:40;-6.20;99.90
13794;DHT22;31160;49.500;7.772;2022-12-16T02:20:21;-6.20;99.90
13794;DHT22;31160;49.500;7.772;2022-12-16T02:26:08;-6.30;99.90
13794;DHT22;31160;49.500;7.772;2022-12-16T02:29:06;-6.20;99.90
13794;DHT22;31160;49.500;7.772;2022-12-16T02:34:29;-6.40;99.90
13794;DHT22;31160;49.500;7.772;2022-12-16T02:37:51;-6.50;99.90
13794;DHT22;31160;49.500;7.772;2022-12-16T02:40:02;-6.50;99.90
13794;DHT22;31160;49.500;7.772;2022-12-16T02:42:33;-6.60;99.90
13794;DHT22;31160;49.500;7.772;2022-12-16T02:45:17;-6.70;99.90
13794;DHT22;31160;49.500;7.772;2022-12-16T02:47:45;-6.80;99.90
13794;DHT22;31160;49.500;7.772;2022-12-16T02:50:34;-6.70;99.90
13794;DHT22;31160;49.500;7.772;2022-12-16T02:53:02;-6.70;99.90
13794;DHT22;31160;49.500;7.772;2022-12-16T03:00:54;-6.60;99.90
13794;DHT22;31160;49.500;7.772;2022-12-16T03:03:29;-6.70;99.90
13794;DHT22;31160;49.500;7.772;2022-12-16T03:06:00;-6.70;99.90
13794;DHT22;31160;49.500;7.772;2022-12-16T03:08:34;-6.70;99.90
13794;DHT22;31160;49.500;7.772;2022-12-16T03:11:04;-6.60;99.90
13794;DHT22;31160;49.500;7.772;2022-12-16T03:13:36;-6.60;99.90
13794;DHT22;31160;49.500;7.772;2022-12-16T03:16:05;-6.70;99.90
13794;DHT22;31160;49.500;7.772;2022-12-16T03:18:33;-6.60;99.90
13794;DHT22;31160;49.500;7.772;2022-12-16T03:21:03;-6.60;99.90
13794;DHT22;31160;49.500;7.772;2022-12-16T03:23:37;-6.60;99.90
13794;DHT22;31160;49.500;7.772;2022-12-16T03:26:09;-6.60;99.90
13794;DHT22;31160;49.500;7.772;2022-12-16T03:31:37;-6.70;99.90
13794;DHT22;31160;49.500;7.772;2022-12-16T03:36:42;-6.80;99.90
13794;DHT22;31160;49.500;7.772;2022-12-16T03:39:11;-6.80;99.90
13794;DHT22;31160;49.500;7.772;2022-12-16T03:41:38;-6.80;99.90
13794;DHT22;31160;49.500;7.772;2022-12-16T03:44:06;-6.80;99.90
13794;DHT22;31160;49.500;7.772;2022-12-16T03:46:33;-6.90;99.90
13794;DHT22;31160;49.500;7.772;2022-12-16T03:49:00;-6.90;99.90
13794;DHT22;31160;49.500;7.772;2022-12-16T03:51:27;-7.00;99.90
13794;DHT22;31160;49.500;7.772;2022-12-16T03:53:53;-7.00;99.90
13794;DHT22;31160;49.500;7.772;2022-12-16T03:56:20;-7.00;99.90
13794;DHT22;31160;49.500;7.772;2022-12-16T03:58:47;-7.00;99.90
13794;DHT22;31160;49.500;7.772;2022-12-16T04:01:14;-7.00;99.90
13794;DHT22;31160;49.500;7.772;2022-12-16T04:03:41;-7.00;99.90
13794;DHT22;31160;49.500;7.772;2022-12-16T04:06:07;-7.00;99.90
13794;DHT22;31160;49.500;7.772;2022-12-16T04:08:34;-7.00;99.90
13794;DHT22;31160;49.500;7.772;2022-12-16T04:11:01;-7.10;99.90
13794;DHT22;31160;49.500;7.772;2022-12-16T04:13:46;-7.10;99.90
13794;DHT22;31160;49.500;7.772;2022-12-16T04:16:32;-7.10;99.90
13794;DHT22;31160;49.500;7.772;2022-12-16T04:19:21;-7.10;99.90
13794;DHT22;31160;49.500;7.772;2022-12-16T04:22:13;-7.10;99.90
13794;DHT22;31160;49.500;7.772;2022-12-16T04:25:04;-7.20;99.90
13794;DHT22;31160;49.500;7.772;2022-12-16T04:27:31;-7.20;99.90
13794;DHT22;31160;49.500;7.772;2022-12-16T04:29:58;-7.20;99.90
13794;DHT22;31160;49.500;7.772;2022-12-16T04:32:44;-7.10;99.90
13794;DHT22;31160;49.500;7.772;2022-12-16T04:35:29;-7.20;99.90
13794;DHT22;31160;49.500;7.772;2022-12-16T04:38:15;-7.20;99.90
13794;DHT22;31160;49.500;7.772;2022-12-16T04:41:00;-7.30;99.90
13794;DHT22;31160;49.500;7.772;2022-12-16T04:43:47;-7.30;99.90
13794;DHT22;31160;49.500;7.772;2022-12-16T04:46:32;-7.30;99.90
13794;DHT22;31160;49.500;7.772;2022-12-16T04:49:17;-7.40;99.90
13794;DHT22;31160;49.500;7.772;2022-12-16T04:52:03;-7.40;99.90
13794;DHT22;31160;49.500;7.772;2022-12-16T04:54:49;-7.50;99.90
13794;DHT22;31160;49.500;7.772;2022-12-16T04:57:34;-7.50;99.90
13794;DHT22;31160;49.500;7.772;2022-12-16T05:00:20;-7.50;99.90
13794;DHT22;31160;49.500;7.772;2022-12-16T05:03:05;-7.50;99.90
13794;DHT22;31160;49.500;7.772;2022-12-16T05:05:50;-7.50;99.90
13794;DHT22;31160;49.500;7.772;2022-12-16T05:08:36;-7.50;99.90
13794;DHT22;31160;49.500;7.772;2022-12-16T05:11:21;-7.50;99.90
13794;DHT22;31160;49.500;7.772;2022-12-16T05:14:07;-7.50;99.90
13794;DHT22;31160;49.500;7.772;2022-12-16T05:16:53;-7.50;99.90
13794;DHT22;31160;49.500;7.772;2022-12-16T05:19:38;-7.60;99.90
13794;DHT22;31160;49.500;7.772;2022-12-16T05:22:24;-7.60;99.90
13794;DHT22;31160;49.500;7.772;2022-12-16T05:25:09;-7.60;99.90
13794;DHT22;31160;49.500;7.772;2022-12-16T05:27:56;-7.70;99.90
13794;DHT22;31160;49.500;7.772;2022-12-16T05:30:41;-7.80;99.90
13794;DHT22;31160;49.500;7.772;2022-12-16T05:33:26;-7.80;99.90
13794;DHT22;31160;49.500;7.772;2022-12-16T05:36:11;-7.90;99.90
13794;DHT22;31160;49.500;7.772;2022-12-16T05:38:57;-7.90;99.90
13794;DHT22;31160;49.500;7.772;2022-12-16T05:41:42;-7.90;99.90
13794;DHT22;31160;49.500;7.772;2022-12-16T05:44:28;-8.00;99.90
13794;DHT22;31160;49.500;7.772;2022-12-16T05:47:13;-8.00;99.90
13794;DHT22;31160;49.500;7.772;2022-12-16T05:49:59;-8.00;99.90
13794;DHT22;31160;49.500;7.772;2022-12-16T05:52:52;-8.00;99.90
13794;DHT22;31160;49.500;7.772;2022-12-16T05:55:37;-8.00;99.90
13794;DHT22;31160;49.500;7.772;2022-12-16T05:58:23;-8.00;99.90
13794;DHT22;31160;49.500;7.772;2022-12-16T06:01:09;-7.90;99.90
13794;DHT22;31160;49.500;7.772;2022-12-16T06:03:54;-7.90;99.90
13794;DHT22;31160;49.500;7.772;2022-12-16T06:06:43;-7.90;99.90
13794;DHT22;31160;49.500;7.772;2022-12-16T06:09:28;-7.90;99.90
13794;DHT22;31160;49.500;7.772;2022-12-16T06:12:21;-7.90;99.90
13794;DHT22;31160;49.500;7.772;2022-12-16T06:15:07;-7.90;99.90
13794;DHT22;31160;49.500;7.772;2022-12-16T06:17:53;-7.90;99.90
13794;DHT22;31160;49.500;7.772;2022-12-16T06:20:38;-8.00;99.90
13794;DHT22;31160;49.500;7.772;2022-12-16T06:23:40;-8.00;99.90
13794;DHT22;31160;49.500;7.772;2022-12-16T06:26:25;-8.00;99.90
13794;DHT22;31160;49.500;7.772;2022-12-16T06:29:11;-8.10;99.90
13794;DHT22;31160;49.500;7.772;2022-12-16T06:31:56;-8.10;99.90
13794;DHT22;31160;49.500;7.772;2022-12-16T06:34:42;-8.10;99.90
13794;DHT22;31160;49.500;7.772;2022-12-16T06:37:27;-8.20;99.90
13794;DHT22;31160;49.500;7.772;2022-12-16T06:40:20;-8.20;99.90
13794;DHT22;31160;49.500;7.772;2022-12-16T06:43:06;-8.20;99.90
13794;DHT22;31160;49.500;7.772;2022-12-16T06:45:51;-8.20;99.90
13794;DHT22;31160;49.500;7.772;2022-12-16T06:48:37;-8.20;99.90
13794;DHT22;31160;49.500;7.772;2022-12-16T06:51:22;-8.20;99.90
13794;DHT22;31160;49.500;7.772;2022-12-16T06:54:07;-8.10;99.90
13794;DHT22;31160;49.500;7.772;2022-12-16T06:57:03;-8.20;99.90
13794;DHT22;31160;49.500;7.772;2022-12-16T06:59:49;-8.20;99.90
13794;DHT22;31160;49.500;7.772;2022-12-16T07:02:34;-8.20;99.90
13794;DHT22;31160;49.500;7.772;2022-12-16T07:05:20;-8.20;99.90
13794;DHT22;31160;49.500;7.772;2022-12-16T07:08:05;-8.20;99.90
13794;DHT22;31160;49.500;7.772;2022-12-16T07:10:51;-8.20;99.90
13794;DHT22;31160;49.500;7.772;2022-12-16T07:13:43;-8.20;99.90
13794;DHT22;31160;49.500;7.772;2022-12-16T07:16:28;-8.20;99.90
13794;DHT22;31160;49.500;7.772;2022-12-16T07:19:14;-8.20;99.90
13794;DHT22;31160;49.500;7.772;2022-12-16T07:22:00;-8.20;99.90
13794;DHT22;31160;49.500;7.772;2022-12-16T07:24:45;-8.20;99.90
13794;DHT22;31160;49.500;7.772;2022-12-16T07:27:30;-8.20;99.90
13794;DHT22;31160;49.500;7.772;2022-12-16T07:30:16;-8.20;99.90
13794;DHT22;31160;49.500;7.772;2022-12-16T07:33:01;-8.20;99.90
13794;DHT22;31160;49.500;7.772;2022-12-16T07:35:46;-8.20;99.90
13794;DHT22;31160;49.500;7.772;2022-12-16T07:38:32;-8.20;99.90
13794;DHT22;31160;49.500;7.772;2022-12-16T07:41:17;-8.30;99.90
13794;DHT22;31160;49.500;7.772;2022-12-16T07:44:03;-8.40;99.90
13794;DHT22;31160;49.500;7.772;2022-12-16T07:46:48;-8.40;99.90
13794;DHT22;31160;49.500;7.772;2022-12-16T07:49:33;-8.40;99.90
13794;DHT22;31160;49.500;7.772;2022-12-16T07:52:21;-8.40;99.90
13794;DHT22;31160;49.500;7.772;2022-12-16T07:55:06;-8.40;99.90
13794;DHT22;31160;49.500;7.772;2022-12-16T07:57:52;-8.30;99.90
13794;DHT22;31160;49.500;7.772;2022-12-16T08:00:37;-8.20;99.90
13794;DHT22;31160;49.500;7.772;2022-12-16T08:03:23;-8.20;99.90
13794;DHT22;31160;49.500;7.772;2022-12-16T08:06:08;-8.10;99.90
13794;DHT22;31160;49.500;7.772;2022-12-16T08:08:54;-8.10;99.90
13794;DHT22;31160;49.500;7.772;2022-12-16T08:11:39;-8.00;99.90
13794;DHT22;31160;49.500;7.772;2022-12-16T08:14:24;-7.90;99.90
13794;DHT22;31160;49.500;7.772;2022-12-16T08:17:10;-7.80;99.90
13794;DHT22;31160;49.500;7.772;2022-12-16T08:19:55;-7.70;99.90
13794;DHT22;31160;49.500;7.772;2022-12-16T08:22:41;-7.70;99.90
13794;DHT22;31160;49.500;7.772;2022-12-16T08:25:26;-7.70;99.90
13794;DHT22;31160;49.500;7.772;2022-12-16T08:28:12;-7.60;99.90
13794;DHT22;31160;49.500;7.772;2022-12-16T08:30:57;-7.60;99.90
13794;DHT22;31160;49.500;7.772;2022-12-16T08:33:43;-7.60;99.90
13794;DHT22;31160;49.500;7.772;2022-12-16T08:36:28;-7.50;99.90
13794;DHT22;31160;49.500;7.772;2022-12-16T08:39:14;-7.30;99.90
13794;DHT22;31160;49.500;7.772;2022-12-16T08:41:59;-7.20;99.90
13794;DHT22;31160;49.500;7.772;2022-12-16T08:44:44;-7.10;99.90
13794;DHT22;31160;49.500;7.772;2022-12-16T08:47:30;-7.00;99.90
13794;DHT22;31160;49.500;7.772;2022-12-16T08:50:15;-7.00;99.90
13794;DHT22;31160;49.500;7.772;2022-12-16T08:53:01;-7.00;99.90
13794;DHT22;31160;49.500;7.772;2022-12-16T08:55:46;-6.80;99.90
13794;DHT22;31160;49.500;7.772;2022-12-16T08:58:32;-6.80;99.90
13794;DHT22;31160;49.500;7.772;2022-12-16T09:01:18;-6.70;99.90
13794;DHT22;31160;49.500;7.772;2022-12-16T09:04:03;-6.60;99.90
13794;DHT22;31160;49.500;7.772;2022-12-16T09:06:53;-6.50;99.90
13794;DHT22;31160;49.500;7.772;2022-12-16T09:09:38;-6.40;99.90
13794;DHT22;31160;49.500;7.772;2022-12-16T09:12:24;-6.30;99.90
13794;DHT22;31160;49.500;7.772;2022-12-16T09:15:10;-6.20;99.90
13794;DHT22;31160;49.500;7.772;2022-12-16T09:17:55;-6.10;99.90
13794;DHT22;31160;49.500;7.772;2022-12-16T09:20:41;-6.00;99.90
13794;DHT22;31160;49.500;7.772;2022-12-16T09:23:27;-5.90;99.90
13794;DHT22;31160;49.500;7.772;2022-12-16T09:26:12;-5.70;99.90
13794;DHT22;31160;49.500;7.772;2022-12-16T09:28:57;-5.70;99.90
13794;DHT22;31160;49.500;7.772;2022-12-16T09:31:43;-5.60;99.90
13794;DHT22;31160;49.500;7.772;2022-12-16T09:34:28;-5.40;99.90
13794;DHT22;31160;49.500;7.772;2022-12-16T09:37:14;-5.20;99.90
13794;DHT22;31160;49.500;7.772;2022-12-16T09:39:59;-5.10;99.90
13794;DHT22;31160;49.500;7.772;2022-12-16T09:42:55;-4.90;99.90
13794;DHT22;31160;49.500;7.772;2022-12-16T09:46:07;-4.80;99.90
13794;DHT22;31160;49.500;7.772;2022-12-16T09:49:10;-4.60;99.90
13794;DHT22;31160;49.500;7.772;2022-12-16T09:51:58;-4.50;99.90
13794;DHT22;31160;49.500;7.772;2022-12-16T09:54:45;-4.40;99.90
13794;DHT22;31160;49.500;7.772;2022-12-16T09:57:33;-4.30;99.90
13794;DHT22;31160;49.500;7.772;2022-12-16T10:00:25;-4.10;99.90
13794;DHT22;31160;49.500;7.772;2022-12-16T10:03:37;-4.00;99.90
13794;DHT22;31160;49.500;7.772;2022-12-16T10:09:34;-3.60;99.90
13794;DHT22;31160;49.500;7.772;2022-12-16T10:12:51;-3.40;99.90
13794;DHT22;31160;49.500;7.772;2022-12-16T10:15:59;-3.40;99.90
13794;DHT22;31160;49.500;7.772;2022-12-16T10:19:00;-3.40;99.90
13794;DHT22;31160;49.500;7.772;2022-12-16T10:21:59;-3.40;99.90
13794;DHT22;31160;49.500;7.772;2022-12-16T10:27:54;-3.00;99.90
13794;DHT22;31160;49.500;7.772;2022-12-16T10:30:42;-2.80;99.90
13794;DHT22;31160;49.500;7.772;2022-12-16T10:33:28;-2.80;99.90
13794;DHT22;31160;49.500;7.772;2022-12-16T10:36:17;-2.80;99.90
13794;DHT22;31160;49.500;7.772;2022-12-16T10:39:30;-2.90;99.90
13794;DHT22;31160;49.500;7.772;2022-12-16T10:42:29;-2.80;99.90
13794;DHT22;31160;49.500;7.772;2022-12-16T10:48:10;-2.50;99.90
13794;DHT22;31160;49.500;7.772;2022-12-16T10:50:59;-2.20;99.90
13794;DHT22;31160;49.500;7.772;2022-12-16T10:53:45;-2.10;99.90
13794;DHT22;31160;49.500;7.772;2022-12-16T10:56:57;-2.00;99.90
13794;DHT22;31160;49.500;7.772;2022-12-16T10:59:44;-1.90;99.90
13794;DHT22;31160;49.500;7.772;2022-12-16T11:02:30;-1.80;99.90
13794;DHT22;31160;49.500;7.772;2022-12-16T11:05:32;-1.80;99.90
13794;DHT22;31160;49.500;7.772;2022-12-16T11:08:26;-1.60;99.90
13794;DHT22;31160;49.500;7.772;2022-12-16T11:11:26;-1.70;99.90
13794;DHT22;31160;49.500;7.772;2022-12-16T11:14:26;-1.50;99.90
13794;DHT22;31160;49.500;7.772;2022-12-16T11:17:31;-1.50;99.90
13794;DHT22;31160;49.500;7.772;2022-12-16T11:20:23;-1.20;99.90
13794;DHT22;31160;49.500;7.772;2022-12-16T11:23:13;-1.10;99.90
13794;DHT22;31160;49.500;7.772;2022-12-16T11:31:55;-0.80;99.90
13794;DHT22;31160;49.500;7.772;2022-12-16T11:34:44;-0.60;99.90
13794;DHT22;31160;49.500;7.772;2022-12-16T11:37:31;-0.60;99.90
13794;DHT22;31160;49.500;7.772;2022-12-16T11:40:17;-0.30;99.90
13794;DHT22;31160;49.500;7.772;2022-12-16T11:43:04;-0.40;99.90
13794;DHT22;31160;49.500;7.772;2022-12-16T11:45:51;-0.20;99.90
13794;DHT22;31160;49.500;7.772;2022-12-16T11:48:38;-0.10;99.90
13794;DHT22;31160;49.500;7.772;2022-12-16T11:51:25;-0.30;99.90
13794;DHT22;31160;49.500;7.772;2022-12-16T11:54:17;-0.40;99.90
13794;DHT22;31160;49.500;7.772;2022-12-16T11:57:15;-0.30;99.90
13794;DHT22;31160;49.500;7.772;2022-12-16T12:00:03;-0.40;99.90
13794;DHT22;31160;49.500;7.772;2022-12-16T12:03:13;-0.30;99.90
13794;DHT22;31160;49.500;7.772;2022-12-16T12:06:19;-0.20;99.90
13794;DHT22;31160;49.500;7.772;2022-12-16T12:09:20;-0.20;99.90
13794;DHT22;31160;49.500;7.772;2022-12-16T12:25:08;-0.10;99.90
13794;DHT22;31160;49.500;7.772;2022-12-16T12:31:44;-0.50;99.90
13794;DHT22;31160;49.500;7.772;2022-12-16T12:34:49;-0.60;99.90
13794;DHT22;31160;49.500;7.772;2022-12-16T12:37:53;-0.60;99.90
13794;DHT22;31160;49.500;7.772;2022-12-16T12:44:10;-0.70;99.90
13794;DHT22;31160;49.500;7.772;2022-12-16T12:47:14;-0.40;99.90
13794;DHT22;31160;49.500;7.772;2022-12-16T12:50:11;-0.30;99.90
13794;DHT22;31160;49.500;7.772;2022-12-16T12:53:04;-0.20;99.90
13794;DHT22;31160;49.500;7.772;2022-12-16T12:59:23;-0.20;99.90
13794;DHT22;31160;49.500;7.772;2022-12-16T13:02:20;0.00;99.90
13794;DHT22;31160;49.500;7.772;2022-12-16T13:05:12;0.10;99.90
13794;DHT22;31160;49.500;7.772;2022-12-16T13:08:29;0.10;99.90
13794;DHT22;31160;49.500;7.772;2022-12-16T13:11:15;0.00;99.90
13794;DHT22;31160;49.500;7.772;2022-12-16T13:14:01;0.00;99.90
13794;DHT22;31160;49.500;7.772;2022-12-16T13:16:56;0.10;99.90
13794;DHT22;31160;49.500;7.772;2022-12-16T13:19:53;0.20;99.90
13794;DHT22;31160;49.500;7.772;2022-12-16T13:22:38;-0.10;99.90
13794;DHT22;31160;49.500;7.772;2022-12-16T13:25:50;-0.20;99.90
13794;DHT22;31160;49.500;7.772;2022-12-16T13:28:37;-0.30;99.90
13794;DHT22;31160;49.500;7.772;2022-12-16T13:31:24;-0.10;99.90
13794;DHT22;31160;49.500;7.772;2022-12-16T13:37:02;-0.10;99.90
13794;DHT22;31160;49.500;7.772;2022-12-16T13:42:52;-0.30;99.90
13794;DHT22;31160;49.500;7.772;2022-12-16T13:48:49;-0.40;99.90
13794;DHT22;31160;49.500;7.772;2022-12-16T13:54:34;-0.30;99.90
13794;DHT22;31160;49.500;7.772;2022-12-16T13:57:22;-0.10;99.90
13794;DHT22;31160;49.500;7.772;2022-12-16T14:00:27;-0.30;99.90
13794;DHT22;31160;49.500;7.772;2022-12-16T14:03:17;-0.40;99.90
13794;DHT22;31160;49.500;7.772;2022-12-16T14:06:13;-0.30;99.90
13794;DHT22;31160;49.500;7.772;2022-12-16T14:09:00;-0.30;99.90
13794;DHT22;31160;49.500;7.772;2022-12-16T14:15:37;-0.20;99.90
13794;DHT22;31160;49.500;7.772;2022-12-16T14:18:47;-0.20;99.90
13794;DHT22;31160;49.500;7.772;2022-12-16T14:21:44;-0.40;99.90
13794;DHT22;31160;49.500;7.772;2022-12-16T14:24:32;-0.30;99.90
13794;DHT22;31160;49.500;7.772;2022-12-16T14:27:20;-0.40;99.90
13794;DHT22;31160;49.500;7.772;2022-12-16T14:30:31;-0.40;99.90
13794;DHT22;31160;49.500;7.772;2022-12-16T14:33:26;-0.40;99.90
13794;DHT22;31160;49.500;7.772;2022-12-16T14:36:27;-0.40;99.90
13794;DHT22;31160;49.500;7.772;2022-12-16T14:39:20;-0.30;99.90
13794;DHT22;31160;49.500;7.772;2022-12-16T14:42:32;-0.40;99.90
13794;DHT22;31160;49.500;7.772;2022-12-16T14:45:34;-0.60;99.90
13794;DHT22;31160;49.500;7.772;2022-12-16T14:48:24;-0.60;99.90
13794;DHT22;31160;49.500;7.772;2022-12-16T14:54:41;-0.70;99.90
13794;DHT22;31160;49.500;7.772;2022-12-16T14:57:29;-0.80;99.90
13794;DHT22;31160;49.500;7.772;2022-12-16T15:00:16;-0.80;99.90
13794;DHT22;31160;49.500;7.772;2022-12-16T15:06:06;-0.80;99.90
13794;DHT22;31160;49.500;7.772;2022-12-16T15:08:55;-0.90;99.90
13794;DHT22;31160;49.500;7.772;2022-12-16T15:11:42;-0.90;99.90
13794;DHT22;31160;49.500;7.772;2022-12-16T15:14:38;-0.90;99.90
13794;DHT22;31160;49.500;7.772;2022-12-16T15:17:46;-0.90;99.90
13794;DHT22;31160;49.500;7.772;2022-12-16T15:20:35;-1.00;99.90
13794;DHT22;31160;49.500;7.772;2022-12-16T15:23:24;-1.00;99.90
13794;DHT22;31160;49.500;7.772;2022-12-16T15:29:03;-1.30;99.90
13794;DHT22;31160;49.500;7.772;2022-12-16T15:31:50;-1.30;99.90
13794;DHT22;31160;49.500;7.772;2022-12-16T15:34:46;-1.30;99.90
13794;DHT22;31160;49.500;7.772;2022-12-16T15:37:38;-1.40;99.90
13794;DHT22;31160;49.500;7.772;2022-12-16T15:40:32;-1.50;99.90
13794;DHT22;31160;49.500;7.772;2022-12-16T15:43:29;-1.60;99.90
13794;DHT22;31160;49.500;7.772;2022-12-16T15:46:26;-1.60;99.90
13794;DHT22;31160;49.500;7.772;2022-12-16T15:52:29;-1.80;99.90
13794;DHT22;31160;49.500;7.772;2022-12-16T15:58:27;-1.90;99.90
13794;DHT22;31160;49.500;7.772;2022-12-16T16:01:16;-2.00;99.90
13794;DHT22;31160;49.500;7.772;2022-12-16T16:04:03;-2.10;99.90
13794;DHT22;31160;49.500;7.772;2022-12-16T16:06:59;-2.20;99.90
13794;DHT22;31160;49.500;7.772;2022-12-16T16:09:44;-2.40;99.90
13794;DHT22;31160;49.500;7.772;2022-12-16T16:12:30;-2.50;99.90
13794;DHT22;31160;49.500;7.772;2022-12-16T16:15:15;-2.50;99.90
13794;DHT22;31160;49.500;7.772;2022-12-16T16:18:04;-2.60;99.90
13794;DHT22;31160;49.500;7.772;2022-12-16T16:20:50;-2.70;99.90
13794;DHT22;31160;49.500;7.772;2022-12-16T16:23:35;-2.80;99.90
13794;DHT22;31160;49.500;7.772;2022-12-16T16:26:24;-2.80;99.90
13794;DHT22;31160;49.500;7.772;2022-12-16T16:29:10;-2.80;99.90
13794;DHT22;31160;49.500;7.772;2022-12-16T16:31:56;-2.90;99.90
13794;DHT22;31160;49.500;7.772;2022-12-16T16:34:41;-3.00;99.90
13794;DHT22;31160;49.500;7.772;2022-12-16T16:37:26;-3.00;99.90
13794;DHT22;31160;49.500;7.772;2022-12-16T16:40:28;-3.10;99.90
13794;DHT22;31160;49.500;7.772;2022-12-16T16:43:14;-3.10;99.90
13794;DHT22;31160;49.500;7.772;2022-12-16T16:46:01;-3.20;99.90
13794;DHT22;31160;49.500;7.772;2022-12-16T16:48:50;-3.20;99.90
13794;DHT22;31160;49.500;7.772;2022-12-16T16:51:35;-3.20;99.90
13794;DHT22;31160;49.500;7.772;2022-12-16T16:54:20;-3.30;99.90
13794;DHT22;31160;49.500;7.772;2022-12-16T16:57:07;-3.30;99.90
13794;DHT22;31160;49.500;7.772;2022-12-16T16:59:53;-3.40;99.90
13794;DHT22;31160;49.500;7.772;2022-12-16T17:02:38;-3.50;99.90
13794;DHT22;31160;49.500;7.772;2022-12-16T17:05:24;-3.60;99.90
13794;DHT22;31160;49.500;7.772;2022-12-16T17:08:09;-3.70;99.90
13794;DHT22;31160;49.500;7.772;2022-12-16T17:10:55;-3.70;99.90
13794;DHT22;31160;49.500;7.772;2022-12-16T17:13:40;-3.70;99.90
13794;DHT22;31160;49.500;7.772;2022-12-16T17:16:26;-3.70;99.90
13794;DHT22;31160;49.500;7.772;2022-12-16T17:19:11;-3.80;99.90
13794;DHT22;31160;49.500;7.772;2022-12-16T17:21:56;-3.80;99.90
13794;DHT22;31160;49.500;7.772;2022-12-16T17:24:42;-3.90;99.90
13794;DHT22;31160;49.500;7.772;2022-12-16T17:27:27;-3.90;99.90
13794;DHT22;31160;49.500;7.772;2022-12-16T17:30:20;-4.00;99.90
13794;DHT22;31160;49.500;7.772;2022-12-16T17:33:16;-4.10;99.90
13794;DHT22;31160;49.500;7.772;2022-12-16T17:36:02;-4.10;99.90
13794;DHT22;31160;49.500;7.772;2022-12-16T17:38:54;-4.10;99.90
13794;DHT22;31160;49.500;7.772;2022-12-16T17:41:39;-4.10;99.90
13794;DHT22;31160;49.500;7.772;2022-12-16T17:44:24;-4.20;99.90
13794;DHT22;31160;49.500;7.772;2022-12-16T17:47:10;-4.20;99.90
13794;DHT22;31160;49.500;7.772;2022-12-16T17:49:59;-4.20;99.90
13794;DHT22;31160;49.500;7.772;2022-12-16T17:52:44;-4.30;99.90
13794;DHT22;31160;49.500;7.772;2022-12-16T17:55:30;-4.30;99.90
13794;DHT22;31160;49.500;7.772;2022-12-16T17:58:15;-4.40;99.90
13794;DHT22;31160;49.500;7.772;2022-12-16T18:01:02;-4.40;99.90
13794;DHT22;31160;49.500;7.772;2022-12-16T18:03:47;-4.40;99.90
13794;DHT22;31160;49.500;7.772;2022-12-16T18:06:32;-4.40;99.90
13794;DHT22;31160;49.500;7.772;2022-12-16T18:09:18;-4.50;99.90
13794;DHT22;31160;49.500;7.772;2022-12-16T18:12:04;-4.60;99.90
13794;DHT22;31160;49.500;7.772;2022-12-16T18:14:49;-4.60;99.90
13794;DHT22;31160;49.500;7.772;2022-12-16T18:17:35;-4.60;99.90
13794;DHT22;31160;49.500;7.772;2022-12-16T18:20:20;-4.60;99.90
13794;DHT22;31160;49.500;7.772;2022-12-16T18:23:05;-4.70;99.90
13794;DHT22;31160;49.500;7.772;2022-12-16T18:26:02;-4.70;99.90
13794;DHT22;31160;49.500;7.772;2022-12-16T18:28:48;-4.70;99.90
13794;DHT22;31160;49.500;7.772;2022-12-16T18:31:34;-4.80;99.90
13794;DHT22;31160;49.500;7.772;2022-12-16T18:34:19;-4.90;99.90
13794;DHT22;31160;49.500;7.772;2022-12-16T18:37:05;-4.90;99.90
13794;DHT22;31160;49.500;7.772;2022-12-16T18:39:50;-4.90;99.90
13794;DHT22;31160;49.500;7.772;2022-12-16T18:42:36;-5.00;99.90
13794;DHT22;31160;49.500;7.772;2022-12-16T18:45:21;-5.00;99.90